Time,TemperatureF,DewpointF,PressureIn,WindDirection,WindDirectionDegrees,WindSpeedMPH,WindSpeedGustMPH,Humidity,HourlyPrecipIn,Conditions,Clouds,dailyrainin,SolarRadiationWatts/m^2,SoftwareType,DateUTC
2013-02-18 00:01:00,47.0,38.0,-100.00,ENE,61,3.0,5.0,72,0.00,,,0.00,0.000000,,2013-02-18 08:01:00,
2013-02-18 00:11:00,47.0,38.0,-100.00,ENE,61,3.0,5.0,72,0.00,,,0.00,0.000000,,2013-02-18 08:11:00,
2013-02-18 00:33:00,46.0,38.0,-100.00,SE,131,0.0,5.0,74,0.00,,,0.00,0.000000,,2013-02-18 08:33:00,
2013-02-18 00:42:00,46.0,38.0,-100.00,SE,131,0.0,5.0,74,0.00,,,0.00,0.000000,,2013-02-18 08:42:00,
2013-02-18 00:52:00,46.0,38.0,-100.00,SE,131,0.0,5.0,74,0.00,,,0.00,0.000000,,2013-02-18 08:52:00,
2013-02-18 01:02:00,46.0,38.0,-100.00,SE,131,0.0,5.0,74,0.00,,,0.00,0.000000,,2013-02-18 09:02:00,
2013-02-18 01:11:00,46.0,38.0,-100.00,SE,131,0.0,5.0,74,0.00,,,0.00,0.000000,,2013-02-18 09:11:00,
2013-02-18 01:32:00,46.0,37.0,-100.00,ENE,62,3.0,7.0,72,0.00,,,0.00,0.000000,,2013-02-18 09:32:00,
2013-02-18 01:42:00,46.0,37.0,-100.00,ENE,62,3.0,7.0,72,0.00,,,0.00,0.000000,,2013-02-18 09:42:00,
2013-02-18 01:52:00,46.0,37.0,-100.00,ENE,62,3.0,7.0,72,0.00,,,0.00,0.000000,,2013-02-18 09:52:00,
2013-02-18 02:01:00,46.0,37.0,-100.00,ENE,62,3.0,7.0,72,0.00,,,0.00,0.000000,,2013-02-18 10:01:00,
2013-02-18 02:11:00,46.0,37.0,-100.00,ENE,62,3.0,7.0,72,0.00,,,0.00,0.000000,,2013-02-18 10:11:00,
2013-02-18 02:42:00,44.0,38.0,-100.00,ENE,63,3.0,6.0,78,0.00,,,0.00,0.000000,,2013-02-18 10:42:00,
2013-02-18 02:52:00,44.0,38.0,-100.00,ENE,63,3.0,6.0,78,0.00,,,0.00,0.000000,,2013-02-18 10:52:00,
2013-02-18 03:01:00,44.0,38.0,-100.00,ENE,63,3.0,6.0,78,0.00,,,0.00,0.000000,,2013-02-18 11:01:00,
2013-02-18 03:11:00,44.0,38.0,-100.00,ENE,63,3.0,6.0,78,0.00,,,0.00,0.000000,,2013-02-18 11:11:00,
2013-02-18 03:43:00,44.0,37.0,-100.00,NE,51,3.0,5.0,77,0.00,,,0.00,0.000000,,2013-02-18 11:43:00,
2013-02-18 03:53:00,44.0,37.0,-100.00,NE,51,3.0,5.0,77,0.00,,,0.00,0.000000,,2013-02-18 11:53:00,
2013-02-18 04:02:00,44.0,37.0,-100.00,NE,51,3.0,5.0,77,0.00,,,0.00,0.000000,,2013-02-18 12:02:00,
2013-02-18 04:11:00,44.0,37.0,-100.00,NE,51,3.0,5.0,77,0.00,,,0.00,0.000000,,2013-02-18 12:11:00,
2013-02-18 04:32:00,43.0,36.0,-100.00,ENE,67,3.0,6.0,76,0.00,,,0.00,0.000000,,2013-02-18 12:32:00,
2013-02-18 04:42:00,43.0,36.0,-100.00,ENE,67,3.0,6.0,76,0.00,,,0.00,0.000000,,2013-02-18 12:42:00,
2013-02-18 04:53:00,43.0,36.0,-100.00,ENE,67,3.0,6.0,76,0.00,,,0.00,0.000000,,2013-02-18 12:53:00,
2013-02-18 05:02:00,43.0,36.0,-100.00,ENE,67,3.0,6.0,76,0.00,,,0.00,0.000000,,2013-02-18 13:02:00,
2013-02-18 05:11:00,43.0,36.0,-100.00,ENE,67,3.0,6.0,76,0.00,,,0.00,0.000000,,2013-02-18 13:11:00,
2013-02-18 05:42:00,43.0,36.0,-100.00,East,79,6.0,8.0,76,0.00,,,-99.99,0.000000,,2013-02-18 13:42:00,
2013-02-18 05:53:00,43.0,36.0,-100.00,East,79,6.0,8.0,76,0.00,,,-99.99,0.000000,,2013-02-18 13:53:00,
2013-02-18 06:02:00,43.0,36.0,-100.00,East,79,6.0,8.0,76,0.00,,,-99.99,0.000000,,2013-02-18 14:02:00,
2013-02-18 06:11:00,43.0,36.0,-100.00,East,79,6.0,8.0,76,0.00,,,-99.99,0.000000,,2013-02-18 14:11:00,
2013-02-18 06:33:00,43.0,36.0,-100.00,NE,48,3.0,7.0,75,0.00,,,0.00,0.000000,,2013-02-18 14:33:00,
2013-02-18 06:42:00,43.0,36.0,-100.00,NE,48,3.0,7.0,75,0.00,,,0.00,0.000000,,2013-02-18 14:42:00,
2013-02-18 06:53:00,43.0,36.0,-100.00,NE,48,3.0,7.0,75,0.00,,,0.00,0.000000,,2013-02-18 14:53:00,
2013-02-18 07:01:00,43.0,36.0,-100.00,NE,48,3.0,7.0,75,0.00,,,0.00,0.000000,,2013-02-18 15:01:00,
2013-02-18 07:11:00,43.0,36.0,-100.00,NE,48,3.0,7.0,75,0.00,,,0.00,0.000000,,2013-02-18 15:11:00,
2013-02-18 07:42:00,43.0,36.0,-100.00,ENE,77,5.0,8.0,75,0.00,,,0.00,8.000000,,2013-02-18 15:42:00,
2013-02-18 07:52:00,43.0,36.0,-100.00,ENE,77,5.0,8.0,75,0.00,,,0.00,8.000000,,2013-02-18 15:52:00,
2013-02-18 08:02:00,43.0,36.0,-100.00,ENE,77,5.0,8.0,75,0.00,,,0.00,8.000000,,2013-02-18 16:02:00,
2013-02-18 08:11:00,43.0,36.0,-100.00,ENE,77,5.0,8.0,75,0.00,,,0.00,8.000000,,2013-02-18 16:11:00,
2013-02-18 08:33:00,49.0,41.0,-100.00,East,96,4.0,9.0,73,0.00,,,0.00,110.000000,,2013-02-18 16:33:00,
2013-02-18 08:43:00,49.0,41.0,-100.00,East,96,4.0,9.0,73,0.00,,,0.00,110.000000,,2013-02-18 16:43:00,
2013-02-18 08:53:00,49.0,41.0,-100.00,East,96,4.0,9.0,73,0.00,,,0.00,110.000000,,2013-02-18 16:53:00,
2013-02-18 09:03:00,49.0,41.0,-100.00,East,96,4.0,9.0,73,0.00,,,0.00,110.000000,,2013-02-18 17:03:00,
2013-02-18 09:11:00,49.0,41.0,-100.00,East,96,4.0,9.0,73,0.00,,,0.00,110.000000,,2013-02-18 17:11:00,
2013-02-18 09:43:00,59.0,41.0,-100.00,SW,227,2.0,7.0,52,0.00,,,-99.99,365.000000,,2013-02-18 17:43:00,
2013-02-18 09:53:00,59.0,41.0,-100.00,SW,227,2.0,7.0,52,0.00,,,-99.99,365.000000,,2013-02-18 17:53:00,
2013-02-18 10:02:00,59.0,41.0,-100.00,SW,227,2.0,7.0,52,0.00,,,-99.99,365.000000,,2013-02-18 18:02:00,
2013-02-18 10:11:00,59.0,41.0,-100.00,SW,227,2.0,7.0,52,0.00,,,-99.99,365.000000,,2013-02-18 18:11:00,
2013-02-18 10:33:00,60.0,36.0,-100.00,WSW,242,4.0,9.0,40,0.00,,,0.00,531.000000,,2013-02-18 18:33:00,
2013-02-18 10:43:00,60.0,36.0,-100.00,WSW,242,4.0,9.0,40,0.00,,,0.00,531.000000,,2013-02-18 18:43:00,
2013-02-18 10:52:00,60.0,36.0,-100.00,WSW,242,4.0,9.0,40,0.00,,,0.00,531.000000,,2013-02-18 18:52:00,
2013-02-18 11:02:00,60.0,36.0,-100.00,WSW,242,4.0,9.0,40,0.00,,,0.00,531.000000,,2013-02-18 19:02:00,
2013-02-18 11:11:00,60.0,36.0,-100.00,WSW,242,4.0,9.0,40,0.00,,,0.00,531.000000,,2013-02-18 19:11:00,
2013-02-18 11:43:00,61.0,40.0,-100.00,WSW,255,5.0,9.0,45,0.00,,,0.00,650.000000,,2013-02-18 19:43:00,
2013-02-18 11:53:00,61.0,40.0,-100.00,WSW,255,5.0,9.0,45,0.00,,,0.00,650.000000,,2013-02-18 19:53:00,
2013-02-18 12:01:00,61.0,40.0,-100.00,WSW,255,5.0,9.0,45,0.00,,,0.00,650.000000,,2013-02-18 20:01:00,
2013-02-18 12:11:00,61.0,40.0,-100.00,WSW,255,5.0,9.0,45,0.00,,,0.00,650.000000,,2013-02-18 20:11:00,
2013-02-18 13:43:00,64.0,40.0,-100.00,West,267,4.0,10.0,42,-99.99,,,0.00,689.000000,,2013-02-18 21:43:00,
2013-02-18 13:52:00,64.0,40.0,-100.00,West,267,4.0,10.0,42,-99.99,,,0.00,689.000000,,2013-02-18 21:52:00,
2013-02-18 14:02:00,64.0,40.0,-100.00,West,267,4.0,10.0,42,-99.99,,,0.00,689.000000,,2013-02-18 22:02:00,
2013-02-18 14:11:00,64.0,40.0,-100.00,West,267,4.0,10.0,42,-99.99,,,0.00,689.000000,,2013-02-18 22:11:00,
2013-02-18 15:34:00,65.0,38.0,-100.00,SSW,211,4.0,9.0,37,-99.99,,,0.00,432.000000,,2013-02-18 23:34:00,
2013-02-18 15:43:00,65.0,38.0,-100.00,SSW,211,4.0,9.0,37,-99.99,,,0.00,432.000000,,2013-02-18 23:43:00,
2013-02-18 15:53:00,65.0,38.0,-100.00,SSW,211,4.0,9.0,37,-99.99,,,0.00,432.000000,,2013-02-18 23:53:00,
2013-02-18 16:02:00,65.0,38.0,-100.00,SSW,211,4.0,9.0,37,-99.99,,,0.00,432.000000,,2013-02-19 00:02:00,
2013-02-18 16:11:00,65.0,38.0,-100.00,SSW,211,4.0,9.0,37,-99.99,,,0.00,432.000000,,2013-02-19 00:11:00,
2013-02-18 16:35:00,63.0,41.0,-100.00,West,269,6.0,11.0,44,0.00,,,0.00,269.000000,,2013-02-19 00:35:00,
2013-02-18 16:44:00,63.0,41.0,-100.00,West,269,6.0,11.0,44,0.00,,,0.00,269.000000,,2013-02-19 00:44:00,
2013-02-18 16:54:00,63.0,41.0,-100.00,West,269,6.0,11.0,44,0.00,,,0.00,269.000000,,2013-02-19 00:54:00,
2013-02-18 17:02:00,63.0,41.0,-100.00,West,269,6.0,11.0,44,0.00,,,0.00,269.000000,,2013-02-19 01:02:00,
2013-02-18 17:12:00,63.0,41.0,-100.00,West,269,6.0,11.0,44,0.00,,,0.00,269.000000,,2013-02-19 01:12:00,
2013-02-18 17:45:00,56.0,37.0,-100.00,WSW,246,5.0,15.0,49,0.00,,,-99.99,95.000000,,2013-02-19 01:45:00,
2013-02-18 17:55:00,56.0,37.0,-100.00,WSW,246,5.0,15.0,49,0.00,,,-99.99,95.000000,,2013-02-19 01:55:00,
2013-02-18 18:02:00,56.0,37.0,-100.00,WSW,246,5.0,15.0,49,0.00,,,-99.99,95.000000,,2013-02-19 02:02:00,
2013-02-18 18:12:00,56.0,37.0,-100.00,WSW,246,5.0,15.0,49,0.00,,,-99.99,95.000000,,2013-02-19 02:12:00,
2013-02-18 18:43:00,50.0,40.0,-100.00,WNW,302,2.0,5.0,68,0.00,,,0.00,8.000000,,2013-02-19 02:43:00,
2013-02-18 18:54:00,50.0,40.0,-100.00,WNW,302,2.0,5.0,68,0.00,,,0.00,8.000000,,2013-02-19 02:54:00,
2013-02-18 19:04:00,50.0,40.0,-100.00,WNW,302,2.0,5.0,68,0.00,,,0.00,8.000000,,2013-02-19 03:04:00,
2013-02-18 19:35:00,46.0,39.0,-100.00,NE,51,4.0,6.0,77,0.00,,,0.00,0.000000,,2013-02-19 03:35:00,
2013-02-18 19:45:00,46.0,39.0,-100.00,NE,51,4.0,6.0,77,0.00,,,0.00,0.000000,,2013-02-19 03:45:00,
2013-02-18 19:54:00,46.0,39.0,-100.00,NE,51,4.0,6.0,77,0.00,,,0.00,0.000000,,2013-02-19 03:54:00,
2013-02-18 20:02:00,46.0,39.0,-100.00,NE,51,4.0,6.0,77,0.00,,,0.00,0.000000,,2013-02-19 04:02:00,
2013-02-18 20:11:00,46.0,39.0,-100.00,NE,51,4.0,6.0,77,0.00,,,0.00,0.000000,,2013-02-19 04:11:00,
2013-02-18 20:34:00,43.0,39.0,-100.00,NNE,30,2.0,6.0,87,0.00,,,0.00,0.000000,,2013-02-19 04:34:00,
2013-02-18 20:44:00,43.0,39.0,-100.00,NNE,30,2.0,6.0,87,0.00,,,0.00,0.000000,,2013-02-19 04:44:00,
2013-02-18 20:54:00,43.0,39.0,-100.00,NNE,30,2.0,6.0,87,0.00,,,0.00,0.000000,,2013-02-19 04:54:00,
2013-02-18 21:01:00,43.0,39.0,-100.00,NNE,30,2.0,6.0,87,0.00,,,0.00,0.000000,,2013-02-19 05:01:00,
2013-02-18 21:12:00,43.0,39.0,-100.00,NNE,30,2.0,6.0,87,0.00,,,0.00,0.000000,,2013-02-19 05:12:00,
2013-02-18 21:32:00,42.0,40.0,-100.00,ENE,62,6.0,7.0,94,0.00,,,0.00,0.000000,,2013-02-19 05:32:00,
2013-02-18 21:43:00,42.0,40.0,-100.00,ENE,62,6.0,7.0,94,0.00,,,0.00,0.000000,,2013-02-19 05:43:00,
2013-02-18 21:52:00,42.0,40.0,-100.00,ENE,62,6.0,7.0,94,0.00,,,0.00,0.000000,,2013-02-19 05:52:00,
2013-02-18 22:02:00,42.0,40.0,-100.00,ENE,62,6.0,7.0,94,0.00,,,0.00,0.000000,,2013-02-19 06:02:00,
2013-02-18 22:11:00,42.0,40.0,-100.00,ENE,62,6.0,7.0,94,0.00,,,0.00,0.000000,,2013-02-19 06:11:00,
2013-02-18 22:33:00,41.0,40.0,-100.00,NNE,32,2.0,7.0,97,0.00,,,0.00,0.000000,,2013-02-19 06:33:00,
2013-02-18 22:42:00,41.0,40.0,-100.00,NNE,32,2.0,7.0,97,0.00,,,0.00,0.000000,,2013-02-19 06:42:00,
2013-02-18 22:52:00,41.0,40.0,-100.00,NNE,32,2.0,7.0,97,0.00,,,0.00,0.000000,,2013-02-19 06:52:00,
2013-02-18 23:01:00,41.0,40.0,-100.00,NNE,32,2.0,7.0,97,0.00,,,0.00,0.000000,,2013-02-19 07:01:00,
2013-02-18 23:11:00,41.0,40.0,-100.00,NNE,32,2.0,7.0,97,0.00,,,0.00,0.000000,,2013-02-19 07:11:00,
2013-02-18 23:42:00,40.0,39.0,-100.00,NE,43,3.0,4.0,98,0.00,,,0.00,0.000000,,2013-02-19 07:42:00,
2013-02-18 23:52:00,40.0,39.0,-100.00,NE,43,3.0,4.0,98,0.00,,,0.00,0.000000,,2013-02-19 07:52:00,